Clearwater, British Columbia

Past 24 Hour Conditions

Date / Time
(PDT)
Conditions Temp
(°F)
Humidity
(%)
Dew Point
(°F)
Wind
(mph)
Pressure
(inches)
Visibility
(miles)
29 March 2015
19:00 N/A 49 73 41 ENE 5 29.9 N/A
18:00 N/A 50 68 40 E 9 29.9 N/A
17:00 N/A 52 67 42 NE 4 29.9 N/A
16:00 N/A 55   53 39 N 3 29.9 N/A
15:00 N/A 55   51 37 NNE 5 29.9 N/A
14:00 N/A 53 56 38 calm 29.9 N/A
13:00 N/A 51 63 39 ENE 4 29.9 N/A
12:00 N/A 50 64 38 NW 3 30.0 N/A
11:00 N/A 48 65 37 ENE 5 30.0 N/A
10:00 N/A 47 63 35 calm 30.0 N/A
9:00 N/A 46 65 35 SE 2 30.0 N/A
8:00 N/A 43 78 37 calm 30.0 N/A
7:00 N/A 42   79 35 calm 30.0 N/A
6:00 N/A 43 73 35 calm 30.0 N/A
5:00 N/A 42   78 36 calm 30.0 N/A
4:00 N/A 42   77 35 calm 30.0 N/A
3:00 N/A 46 63 34 calm 30.1 N/A
2:00 N/A 49 49 31 W 3 30.1 N/A
1:00 N/A 48 54 32 calm 30.1 N/A
00:00 N/A 51 46 31 WSW 6 30.1 N/A
28 March 2015
23:00 N/A 47 61 35 SW 3 30.1 N/A
22:00 N/A 45 66 35 N 2 30.1 N/A
21:00 N/A 47 59 34 NNW 3 30.0 N/A
20:00 N/A 49 50 31 NNE 5 30.0 N/A
19:00 N/A 53 44 32 NNW 4 30.0 N/A
N/A Not available
↑ Highest temperature
↓ Lowest temperature

If you require additional historical weather information, please visit Climate Data Online.

What we are doing

Date modified: